Date,TemperatureHighF,TemperatureAvgF,TemperatureLowF,DewpointHighF,DewpointAvgF,DewpointLowF,HumidityHigh,HumidityAvg,HumidityLow,PressureMaxIn,PressureMinIn,WindSpeedMaxMPH,WindSpeedAvgMPH,GustSpeedMaxMPH,PrecipitationSumIn
2013-1-1,29,20,13,16,10,5,77,67,51,30.61,30.38,4,0,7,0.00
2013-1-2,14,9,6,5,2,-1,78,72,62,30.79,30.55,2,0,3,0.00
2013-1-3,13,9,4,5,2,-2,79,73,68,30.70,30.52,2,0,2,0.00
2013-1-4,32,19,9,22,10,1,74,67,56,30.55,30.39,5,0,8,0.00
2013-1-5,30,22,17,20,14,10,79,72,63,30.46,30.30,3,0,4,0.00
2013-1-6,35,26,20,23,18,12,77,69,45,30.30,30.05,4,0,5,0.00
2013-1-7,38,32,27,26,20,15,75,62,54,30.10,29.77,11,0,13,0.00
2013-1-8,38,35,28,27,21,13,75,58,37,30.06,29.78,13,0,21,0.01
2013-1-9,43,38,33,28,24,20,67,58,45,30.05,29.60,15,1,17,0.16
2013-1-10,38,22,7,28,16,0,88,77,58,30.08,29.55,11,1,12,0.01
2013-1-11,8,5,1,1,-2,-6,76,73,69,30.48,30.08,5,0,6,0.00
2013-1-12,7,3,-4,0,-4,-12,77,72,66,30.58,30.42,3,0,4,0.00
2013-1-13,9,4,-3,2,-3,-10,79,73,68,30.64,30.50,3,0,4,0.00
2013-1-14,20,11,1,14,4,-6,79,73,65,30.58,30.37,5,0,7,0.00
2013-1-15,32,26,20,22,18,14,81,72,59,30.50,30.40,9,0,13,0.00
2013-1-16,40,33,26,24,19,14,71,58,36,30.47,30.36,13,0,17,0.00
2013-1-17,35,28,21,23,18,12,72,64,49,30.54,30.28,5,0,6,0.00
2013-1-18,48,37,27,23,17,9,70,46,21,30.30,30.04,14,0,15,0.19
2013-1-19,41,37,31,25,19,9,64,48,30,30.34,30.16,9,0,11,0.09
2013-1-20,38,24,20,22,15,13,79,70,36,30.53,30.27,12,0,12,0.01
2013-1-21,42,32,22,25,19,11,79,60,29,30.43,30.16,5,0,5,0.04
2013-1-22,34,28,24,20,14,6,70,58,35,30.29,30.15,3,0,4,0.01
2013-1-23,38,30,24,25,18,13,72,61,42,30.25,29.94,5,0,6,0.01
2013-1-24,42,37,30,29,24,18,74,60,41,30.18,29.92,10,0,14,0.03
2013-1-25,43,37,29,30,26,21,78,64,49,30.18,29.91,6,0,9,0.00
2013-1-26,44,36,30,31,28,26,88,73,50,29.92,29.69,7,0,10,0.02
2013-1-27,32,27,22,27,18,11,88,69,43,29.99,29.82,6,0,7,0.00
2013-1-28,30,25,21,17,12,9,71,59,43,30.01,29.82,11,0,11,0.00
2013-1-29,24,14,6,16,4,-5,78,64,55,30.38,29.82,10,0,13,0.00
2013-1-30,37,31,10,24,21,2,83,66,54,30.28,29.99,16,2,20,0.02
2013-1-31,40,37,35,28,25,22,71,60,52,30.15,30.06,13,1,14,0.02